Terminal Aerodrome Forecast
Issued by NWS North Platte, NE

Home | Current Version | Previous Version | Text Only | Print | Product List | Glossary On
Versions: 1 2 3 4 5 6 7 8 9 10 11 12 13 14 15 16 17 18
000
FTUS43 KLBF 300500
TAFVTN
TAF
KVTN 300520Z 3006/0106 11013KT P6SM OVC080
     FM300700 13018KT 4SM TSRA OVC050CB
     FM300800 15015KT P6SM SHRA OVC060
     FM301000 17012G24KT P6SM OVC060
     FM301500 18025G32KT P6SM OVC070
     FM301800 21025G32KT P6SM VCSH OVC050
     FM010000 24014KT P6SM OVC100=

USA.gov is the U.S. government's official web portal to all federal, state and local government web resources and services.